Time;durP1;ratioP1;P1;durP2;ratioP2;P2;SDS_P1;SDS_P2;PMS_P1;PMS_P2;Temp;Humidity;BMP_temperature;BMP_pressure;BME280_temperature;BME280_humidity;BME280_pressure;Samples;Min_cycle;Max_cycle;Signal;HPM_P1;HPM_P2
2021/01/12 00:00:19;;;;;;;98.45;50.13;;;;;;;0.45;81.73;100690.41;5116458;28;20031;-60
2021/01/12 00:02:45;;;;;;;99.07;47.60;;;;;;;0.44;81.82;100686.84;5103396;28;20096;-59
2021/01/12 00:05:11;;;;;;;100.75;49.05;;;;;;;0.44;81.88;100686.84;5116400;27;20415;-59
2021/01/12 00:07:37;;;;;;;102.95;48.75;;;;;;;0.46;82.05;100687.31;5116511;28;20311;-57
2021/01/12 00:10:04;;;;;;;100.45;47.60;;;;;;;0.47;81.82;100693.66;5115314;28;20069;-58
2021/01/12 00:12:29;;;;;;;94.25;47.25;;;;;;;0.47;81.86;100694.47;5115749;28;20052;-58
2021/01/12 00:14:54;;;;;;;92.38;45.60;;;;;;;0.46;81.65;100687.31;5116425;28;20170;-59
2021/01/12 00:17:20;;;;;;;95.63;44.58;;;;;;;0.46;82.01;100689.28;5116061;28;20470;-59
2021/01/12 00:19:45;;;;;;;89.43;45.08;;;;;;;0.44;82.28;100688.78;5116223;28;20411;-64
2021/01/12 00:22:15;;;;;;;86.05;44.25;;;;;;;0.44;82.40;100695.13;5116264;28;20020;-59
2021/01/12 00:24:48;;;;;;;94.95;45.45;;;;;;;0.44;82.69;100688.78;5116325;28;20034;-59
2021/01/12 00:27:16;;;;;;;92.65;47.90;;;;;;;0.44;82.57;100688.78;5116328;28;20039;-57
2021/01/12 00:29:41;;;;;;;99.03;47.38;;;;;;;0.44;82.53;100688.78;5116006;28;20031;-60
2021/01/12 00:32:07;;;;;;;88.40;45.75;;;;;;;0.42;82.68;100691.88;5107268;27;20024;-58
2021/01/12 00:34:33;;;;;;;92.68;44.47;;;;;;;0.42;82.81;100685.53;5115823;28;20108;-63
2021/01/12 00:36:59;;;;;;;97.05;45.85;;;;;;;0.42;82.44;100688.31;5115915;28;20030;-58
2021/01/12 00:39:25;;;;;;;93.90;47.13;;;;;;;0.41;82.80;100689.44;5116217;28;20310;-62
2021/01/12 00:41:53;;;;;;;95.07;44.63;;;;;;;0.41;82.91;100694.97;5108985;28;20084;-58
2021/01/12 00:44:18;;;;;;;94.35;44.90;;;;;;;0.42;83.06;100691.06;5115960;28;20219;-61
2021/01/12 00:46:45;;;;;;;90.78;45.10;;;;;;;0.43;82.88;100684.41;5115784;28;20117;-59
2021/01/12 00:49:15;;;;;;;98.10;47.70;;;;;;;0.44;83.04;100684.06;5115805;28;20035;-60
2021/01/12 00:51:40;;;;;;;87.55;44.15;;;;;;;0.43;82.96;100689.94;5115991;28;20106;-56
2021/01/12 00:54:11;;;;;;;90.35;44.10;;;;;;;0.42;82.89;100685.53;5115787;28;20100;-56
2021/01/12 00:56:36;;;;;;;94.63;46.85;;;;;;;0.41;82.84;100684.72;5115912;28;20119;-59
2021/01/12 00:59:02;;;;;;;90.95;45.72;;;;;;;0.42;82.90;100688.31;5115553;28;20466;-58
2021/01/12 01:01:27;;;;;;;98.20;47.45;;;;;;;0.42;82.73;100682.78;5115734;28;20031;-58
2021/01/12 01:03:53;;;;;;;95.60;47.20;;;;;;;0.42;82.72;100669.75;5115916;28;20111;-58
2021/01/12 01:06:20;;;;;;;102.35;47.33;;;;;;;0.43;82.91;100681.63;5116110;28;20024;-59
2021/01/12 01:08:46;;;;;;;92.65;46.53;;;;;;;0.42;82.97;100671.72;5115694;28;20407;-58
2021/01/12 01:11:11;;;;;;;96.53;46.17;;;;;;;0.44;82.77;100680.50;5115602;28;20026;-58
2021/01/12 01:13:36;;;;;;;92.60;44.45;;;;;;;0.44;82.85;100677.72;5115892;28;20062;-57
2021/01/12 01:16:02;;;;;;;89.78;43.30;;;;;;;0.44;82.65;100677.72;5115230;28;20423;-58
2021/01/12 01:18:27;;;;;;;84.93;42.33;;;;;;;0.43;82.74;100681.63;5115674;28;20023;-58
2021/01/12 01:20:53;;;;;;;92.65;44.45;;;;;;;0.43;82.94;100670.56;5115714;28;20411;-61
2021/01/12 01:23:18;;;;;;;90.40;44.15;;;;;;;0.42;82.63;100671.72;5114444;28;20065;-59
2021/01/12 01:25:44;;;;;;;81.68;42.33;;;;;;;0.39;82.54;100667.66;5115775;28;20027;-62
2021/01/12 01:28:10;;;;;;;87.80;44.35;;;;;;;0.38;82.63;100665.22;5115231;28;20055;-61
2021/01/12 01:30:35;;;;;;;81.72;43.20;;;;;;;0.38;82.44;100657.75;5115727;28;20054;-59
2021/01/12 01:33:00;;;;;;;84.53;42.88;;;;;;;0.38;82.69;100657.75;5115155;28;20110;-60
2021/01/12 01:35:26;;;;;;;92.55;44.05;;;;;;;0.38;82.79;100651.41;5115579;28;20085;-61
2021/01/12 01:37:51;;;;;;;90.22;43.67;;;;;;;0.38;82.61;100651.41;5115695;28;20111;-59
2021/01/12 01:40:23;;;;;;;84.85;42.50;;;;;;;0.37;82.58;100644.25;5114325;28;20026;-59
2021/01/12 01:42:49;;;;;;;91.75;44.78;;;;;;;0.37;82.26;100649.78;5115474;28;20438;-60
2021/01/12 01:45:15;;;;;;;92.90;44.85;;;;;;;0.36;82.42;100648.97;5117983;28;20027;-60
2021/01/12 01:47:45;;;;;;;91.80;43.35;;;;;;;0.36;82.50;100648.97;5119358;28;20053;-62
2021/01/12 01:50:15;;;;;;;88.63;43.95;;;;;;;0.36;82.40;100648.97;5118979;28;20434;-61
2021/01/12 01:52:44;;;;;;;89.80;43.35;;;;;;;0.35;82.45;100643.75;5119326;28;20031;-59
2021/01/12 01:55:12;;;;;;;86.35;43.60;;;;;;;0.34;82.33;100648.47;5118985;28;20023;-62
2021/01/12 01:57:38;;;;;;;88.95;43.90;;;;;;;0.34;82.28;100639.38;5119002;28;20033;-59
2021/01/12 02:00:05;;;;;;;88.35;44.85;;;;;;;0.31;82.46;100627.03;5118697;28;20415;-60
2021/01/12 02:02:37;;;;;;;94.00;44.40;;;;;;;0.32;82.77;100630.59;5118969;28;20132;-61
2021/01/12 02:05:04;;;;;;;86.00;41.97;;;;;;;0.32;82.22;100627.84;5118762;28;20028;-61
2021/01/12 02:07:30;;;;;;;93.55;44.78;;;;;;;0.33;82.58;100629.44;5118912;28;20092;-61
2021/01/12 02:09:59;;;;;;;87.88;44.25;;;;;;;0.32;82.12;100633.34;5118904;28;20475;-60
2021/01/12 02:12:34;;;;;;;84.97;43.50;;;;;;;0.34;82.13;100629.13;5118905;27;20024;-63
2021/01/12 02:15:02;;;;;;;86.45;43.40;;;;;;;0.34;81.95;100631.06;5118411;28;20406;-61
2021/01/12 02:17:30;;;;;;;92.47;42.65;;;;;;;0.33;82.03;100615.63;5113799;28;20415;-63
2021/01/12 02:19:56;;;;;;;90.18;45.58;;;;;;;0.30;82.30;100622.63;5114903;28;20339;-60
2021/01/12 02:22:24;;;;;;;90.00;42.33;;;;;;;0.29;82.28;100621.00;5118534;28;20024;-58
2021/01/12 02:24:49;;;;;;;86.35;44.53;;;;;;;0.27;82.29;100621.34;5118494;28;20046;-58
2021/01/12 02:27:19;;;;;;;87.50;43.75;;;;;;;0.24;81.98;100612.84;5118449;27;20411;-59
2021/01/12 02:29:45;;;;;;;98.47;44.63;;;;;;;0.24;82.38;100613.66;5118006;28;20030;-61
2021/01/12 02:32:11;;;;;;;84.85;44.05;;;;;;;0.22;82.23;100609.63;5118282;28;20024;-61
2021/01/12 02:34:38;;;;;;;84.50;41.80;;;;;;;0.21;82.44;100603.28;5118238;28;20047;-60
2021/01/12 02:37:04;;;;;;;94.07;45.40;;;;;;;0.23;82.59;100609.28;5118716;28;20080;-61
2021/01/12 02:39:29;;;;;;;86.45;43.67;;;;;;;0.21;82.46;100596.94;5118634;28;20406;-60
2021/01/12 02:41:54;;;;;;;92.05;45.47;;;;;;;0.21;82.34;100591.41;5118181;28;20053;-57
2021/01/12 02:44:21;;;;;;;94.90;47.10;;;;;;;0.20;82.35;100593.34;5117789;28;20161;-57
2021/01/12 02:46:46;;;;;;;96.88;47.45;;;;;;;0.21;82.38;100585.88;5118372;28;20028;-55
2021/01/12 02:49:12;;;;;;;93.18;46.85;;;;;;;0.21;82.03;100585.88;5118074;28;20046;-58
2021/01/12 02:51:37;;;;;;;96.13;47.38;;;;;;;0.18;81.86;100579.06;5118217;28;20441;-59
2021/01/12 02:54:02;;;;;;;101.38;47.47;;;;;;;0.17;81.46;100573.84;5117733;28;20034;-59
2021/01/12 02:56:28;;;;;;;91.38;45.30;;;;;;;0.16;81.78;100577.75;5117150;28;20019;-59
2021/01/12 02:58:53;;;;;;;91.45;44.88;;;;;;;0.14;81.95;100575.31;5117556;28;20345;-60
2021/01/12 03:01:20;;;;;;;97.60;48.22;;;;;;;0.16;81.76;100577.75;5117953;28;20063;-59
2021/01/12 03:03:45;;;;;;;94.05;46.72;;;;;;;0.14;81.89;100575.31;5117599;28;20315;-59
2021/01/12 03:06:10;;;;;;;93.90;45.10;;;;;;;0.14;81.95;100574.50;5117806;28;20023;-60
2021/01/12 03:08:36;;;;;;;96.85;47.65;;;;;;;0.14;81.72;100569.78;5117841;28;20024;-61
2021/01/12 03:11:01;;;;;;;90.22;45.85;;;;;;;0.13;81.32;100572.88;5117443;28;20470;-61
2021/01/12 03:13:26;;;;;;;93.53;46.72;;;;;;;0.09;81.80;100571.94;5117281;28;20023;-59
2021/01/12 03:15:52;;;;;;;98.53;47.65;;;;;;;0.09;81.27;100566.41;5117553;28;20100;-59
2021/01/12 03:18:17;;;;;;;99.25;46.92;;;;;;;0.09;81.39;100558.91;5117508;28;20080;-63
2021/01/12 03:20:42;;;;;;;96.70;46.83;;;;;;;0.10;81.22;100563.31;5117270;28;20083;-59
2021/01/12 03:23:07;;;;;;;90.15;45.38;;;;;;;0.09;81.37;100558.91;5116329;28;20372;-63
2021/01/12 03:25:33;;;;;;;87.00;46.15;;;;;;;0.10;81.46;100546.72;5117588;28;20035;-59
2021/01/12 03:27:58;;;;;;;92.95;46.05;;;;;;;0.10;81.40;100551.44;5116714;28;20537;-60
2021/01/12 03:30:24;;;;;;;92.25;46.95;;;;;;;0.07;81.37;100549.34;5117412;28;20024;-59
2021/01/12 03:32:53;;;;;;;99.15;47.60;;;;;;;0.06;80.87;100540.22;5117153;28;20326;-60
2021/01/12 03:35:19;;;;;;;99.25;46.58;;;;;;;0.06;81.33;100543.00;5115833;28;20043;-59
2021/01/12 03:37:45;;;;;;;90.68;45.53;;;;;;;0.06;81.21;100540.22;5117206;28;20430;-60
2021/01/12 03:40:10;;;;;;;96.45;46.30;;;;;;;0.07;81.10;100538.28;5102801;28;20024;-60
2021/01/12 03:42:36;;;;;;;104.32;50.35;;;;;;;0.07;81.37;100546.56;5117185;28;20031;-59
2021/01/12 03:45:03;;;;;;;108.38;53.05;;;;;;;0.07;81.02;100544.63;5116832;28;20475;-63
2021/01/12 03:47:29;;;;;;;103.97;51.50;;;;;;;0.06;80.71;100540.22;5117297;28;20016;-58
2021/01/12 03:49:54;;;;;;;98.43;48.08;;;;;;;0.05;80.47;100549.66;5116900;28;20315;-63
2021/01/12 03:52:19;;;;;;;100.30;48.60;;;;;;;0.03;80.25;100545.59;5116736;28;20061;-62
2021/01/12 03:54:45;;;;;;;102.93;50.35;;;;;;;0.03;80.71;100543.66;5116956;28;20031;-58
2021/01/12 03:57:10;;;;;;;95.85;49.25;;;;;;;0.02;80.49;100542.03;5116631;28;20016;-60
2021/01/12 03:59:35;;;;;;;93.93;47.70;;;;;;;0.01;80.33;100542.38;5116519;27;20023;-61
2021/01/12 04:02:01;;;;;;;95.93;46.50;;;;;;;0.00;80.31;100538.78;5116536;28;20019;-59
2021/01/12 04:04:26;;;;;;;93.30;47.30;;;;;;;0.01;80.57;100537.66;5116836;28;20024;-63
2021/01/12 04:06:51;;;;;;;106.38;52.40;;;;;;;0.02;80.07;100544.00;5116312;28;20088;-61
2021/01/12 04:09:17;;;;;;;107.93;50.95;;;;;;;0.00;80.55;100530.50;5116555;28;20724;-63
2021/01/12 04:11:44;;;;;;;100.97;50.72;;;;;;;-0.03;80.38;100531.13;5116441;28;20046;-63
2021/01/12 04:14:10;;;;;;;108.25;51.97;;;;;;;-0.03;79.96;100536.66;5116267;28;20068;-63
2021/01/12 04:16:35;;;;;;;103.15;50.70;;;;;;;-0.05;80.04;100533.41;5116282;28;20023;-63
2021/01/12 04:19:00;;;;;;;99.72;48.38;;;;;;;-0.06;79.87;100534.56;5116252;28;20022;-63
2021/01/12 04:21:26;;;;;;;100.70;51.28;;;;;;;-0.06;80.44;100531.78;5116525;28;20051;-62
2021/01/12 04:23:51;;;;;;;96.65;49.13;;;;;;;-0.06;80.29;100527.06;5115916;28;20061;-63
2021/01/12 04:26:17;;;;;;;93.80;47.20;;;;;;;-0.05;80.33;100528.69;5112241;28;20425;-60
2021/01/12 04:28:42;;;;;;;98.82;49.08;;;;;;;-0.03;80.93;100531.13;5099597;28;20024;-62
2021/01/12 04:31:08;;;;;;;101.75;48.45;;;;;;;-0.03;80.74;100526.41;5111442;28;20390;-62
2021/01/12 04:33:33;;;;;;;97.28;48.15;;;;;;;-0.01;80.60;100524.13;5112589;28;20097;-63
2021/01/12 04:35:59;;;;;;;94.68;47.58;;;;;;;0.01;80.88;100529.34;5109713;28;20023;-62
2021/01/12 04:38:24;;;;;;;98.70;47.63;;;;;;;-0.03;80.85;100531.94;5115697;28;20019;-64
2021/01/12 04:40:51;;;;;;;96.57;47.28;;;;;;;-0.05;80.61;100530.66;5110676;28;20501;-63
2021/01/12 04:43:16;;;;;;;95.60;47.15;;;;;;;-0.07;80.86;100528.22;5109679;28;20414;-57
2021/01/12 04:45:41;;;;;;;96.32;46.33;;;;;;;-0.06;80.87;100529.03;5107075;28;20051;-63
2021/01/12 04:48:07;;;;;;;98.82;48.78;;;;;;;-0.06;80.87;100532.59;5104868;28;20081;-64
2021/01/12 04:50:33;;;;;;;106.63;50.08;;;;;;;-0.05;80.76;100525.13;5105881;28;20051;-64
2021/01/12 04:52:59;;;;;;;101.88;50.25;;;;;;;-0.06;80.61;100516.03;5100856;28;20315;-58
2021/01/12 04:55:24;;;;;;;106.10;50.90;;;;;;;-0.07;80.75;100516.34;5106283;28;20038;-63
2021/01/12 04:57:50;;;;;;;110.20;52.65;;;;;;;-0.09;80.71;100516.69;5102151;28;20416;-58
2021/01/12 05:00:18;;;;;;;105.22;50.47;;;;;;;-0.08;80.85;100511.97;5104474;28;20027;-62
2021/01/12 05:03:05;;;;;;;109.03;50.50;;;;;;;-0.06;80.44;100512.44;5102315;28;20024;-63
2021/01/12 05:05:36;;;;;;;102.57;52.00;;;;;;;-0.04;80.56;100512.94;5105546;28;20020;-64
2021/01/12 05:08:06;;;;;;;102.13;48.85;;;;;;;-0.04;80.16;100516.50;5109156;28;20024;-71
2021/01/12 05:10:35;;;;;;;100.57;50.40;;;;;;;-0.04;80.54;100510.16;5104934;28;20020;-64
2021/01/12 05:13:01;;;;;;;95.30;48.58;;;;;;;-0.03;80.37;100503.50;5101490;28;20431;-63
2021/01/12 05:15:29;;;;;;;92.07;45.78;;;;;;;0.13;80.50;100510.13;5103252;28;20032;-59
2021/01/12 05:17:56;;;;;;;93.35;48.40;;;;;;;0.15;79.97;100509.78;5099461;28;20020;-65
2021/01/12 05:20:26;;;;;;;94.75;48.08;;;;;;;0.12;79.77;100514.03;5102546;28;20031;-58
2021/01/12 05:23:07;;;;;;;94.50;47.13;;;;;;;0.09;79.51;100517.47;5103055;28;20028;-66
2021/01/12 05:25:36;;;;;;;100.10;50.33;;;;;;;0.06;79.54;100504.31;5102924;28;20423;-65
2021/01/12 05:28:03;;;;;;;100.82;47.47;;;;;;;0.03;79.48;100502.19;5108108;28;20162;-59
2021/01/12 05:30:29;;;;;;;99.45;48.85;;;;;;;0.02;79.67;100502.53;5103825;28;20039;-64
2021/01/12 05:32:56;;;;;;;110.35;51.85;;;;;;;0.01;79.09;100498.16;5104154;28;20324;-65
2021/01/12 05:35:25;;;;;;;93.82;46.70;;;;;;;-0.02;79.44;100489.34;5105059;28;20491;-65
2021/01/12 05:38:14;;;;;;;124.53;62.65;;;;;;;-0.05;79.41;100490.00;5109099;28;20024;-65
2021/01/12 05:40:41;;;;;;;257.10;139.35;;;;;;;-0.06;79.52;100493.09;5103616;28;20502;-64
2021/01/12 05:43:13;;;;;;;124.05;65.63;;;;;;;-0.06;79.89;100490.34;5105591;28;20028;-58
2021/01/12 05:45:41;;;;;;;190.00;97.53;;;;;;;-0.07;79.89;100486.75;5109459;28;20027;-55
2021/01/12 05:48:07;;;;;;;108.88;56.75;;;;;;;-0.06;80.04;100485.63;5107831;28;20557;-58
2021/01/12 05:50:33;;;;;;;94.75;47.70;;;;;;;-0.06;79.49;100493.91;5111840;28;20027;-57
2021/01/12 05:53:04;;;;;;;103.40;48.70;;;;;;;-0.07;80.05;100497.00;5105168;27;20157;-57
2021/01/12 05:55:56;;;;;;;111.05;51.67;;;;;;;-0.07;79.95;100499.78;5103176;28;20094;-58
2021/01/12 05:58:29;;;;;;;102.50;48.83;;;;;;;-0.05;80.29;100500.25;5110638;28;20043;-59
2021/01/12 06:00:55;;;;;;;103.53;50.75;;;;;;;-0.05;80.26;100501.06;5110125;28;20073;-64
2021/01/12 06:03:24;;;;;;;122.95;66.32;;;;;;;-0.03;80.52;100497.97;5105494;28;20053;-58
2021/01/12 06:05:51;;;;;;;107.95;57.80;;;;;;;-0.03;80.15;100506.25;5110536;28;20047;-54
2021/01/12 06:08:16;;;;;;;103.05;49.63;;;;;;;-0.03;80.34;100511.78;5106920;28;20032;-55
2021/01/12 06:10:44;;;;;;;106.93;51.10;;;;;;;-0.06;80.54;100504.97;5118244;28;20027;-56
2021/01/12 06:13:15;;;;;;;106.68;51.47;;;;;;;-0.05;80.68;100503.81;5108578;28;20411;-57
2021/01/12 06:15:43;;;;;;;106.00;52.45;;;;;;;-0.06;80.40;100499.44;5110861;28;20529;-59
2021/01/12 06:18:13;;;;;;;100.90;50.75;;;;;;;-0.07;80.30;100499.78;5115688;28;20032;-58
2021/01/12 06:21:11;;;;;;;105.45;53.53;;;;;;;-0.08;80.59;100507.25;5109264;28;20019;-56
2021/01/12 06:23:46;;;;;;;111.00;54.95;;;;;;;-0.10;79.96;100505.97;5106456;28;20407;-63
2021/01/12 06:26:13;;;;;;;106.45;51.55;;;;;;;-0.14;80.06;100505.81;5105354;28;20284;-64
2021/01/12 06:28:42;;;;;;;107.45;51.55;;;;;;;-0.15;80.40;100508.91;5118455;28;20031;-63
2021/01/12 06:31:09;;;;;;;106.07;53.22;;;;;;;-0.20;80.54;100495.25;5116953;28;20020;-61
2021/01/12 06:33:35;;;;;;;108.13;54.47;;;;;;;-0.20;80.56;100504.38;5118453;28;20073;-64
2021/01/12 06:36:01;;;;;;;117.38;55.97;;;;;;;-0.19;80.53;100494.13;5118232;28;20123;-62
2021/01/12 06:38:28;;;;;;;117.95;55.50;;;;;;;-0.18;80.20;100499.31;5118049;28;20015;-57
2021/01/12 06:40:57;;;;;;;112.88;57.40;;;;;;;-0.20;80.47;100498.03;5118416;28;20300;-58
2021/01/12 06:43:25;;;;;;;138.82;60.28;;;;;;;-0.20;80.18;100495.25;5117998;28;20058;-58
2021/01/12 06:45:52;;;;;;;106.75;51.55;;;;;;;-0.21;80.43;100491.69;5118144;28;20055;-61
2021/01/12 06:48:18;;;;;;;118.63;54.83;;;;;;;-0.17;80.12;100486.31;5117903;28;20178;-65
2021/01/12 06:50:48;;;;;;;123.68;57.60;;;;;;;-0.15;80.61;100493.13;5118159;27;20034;-58
2021/01/12 06:53:14;;;;;;;154.65;72.85;;;;;;;-0.15;80.64;100500.59;5117790;27;20023;-57
2021/01/12 06:55:40;;;;;;;144.18;64.75;;;;;;;-0.18;80.74;100485.50;5118111;28;20438;-64
2021/01/12 06:58:09;;;;;;;126.45;58.17;;;;;;;-0.18;80.82;100495.75;5117872;28;20016;-66
2021/01/12 07:00:36;;;;;;;113.80;55.13;;;;;;;-0.19;81.10;100494.94;5117929;28;20023;-57
2021/01/12 07:03:03;;;;;;;106.82;54.20;;;;;;;-0.19;80.82;100492.16;5118279;28;20030;-55
2021/01/12 07:05:39;;;;;;;109.55;55.13;;;;;;;-0.17;81.20;100491.84;5117471;28;20085;-55
2021/01/12 07:08:09;;;;;;;112.47;52.42;;;;;;;-0.19;81.15;100486.66;5117550;28;20031;-59
2021/01/12 07:10:47;;;;;;;116.57;56.00;;;;;;;-0.21;81.21;100485.34;5117690;28;20039;-58
2021/01/12 07:13:13;;;;;;;107.57;53.75;;;;;;;-0.22;81.26;100483.72;5117385;28;20026;-56
2021/01/12 07:15:43;;;;;;;110.82;56.33;;;;;;;-0.23;81.60;100485.69;5117597;28;20050;-58
2021/01/12 07:18:09;;;;;;;123.82;57.75;;;;;;;-0.23;81.38;100482.91;5117263;28;20115;-59
2021/01/12 07:20:36;;;;;;;115.30;56.55;;;;;;;-0.23;81.26;100476.59;5117269;28;20482;-56
2021/01/12 07:23:09;;;;;;;112.03;56.58;;;;;;;-0.25;81.04;100485.19;5117513;28;20031;-60
2021/01/12 07:25:39;;;;;;;119.38;57.30;;;;;;;-0.25;81.39;100484.38;5117416;28;20053;-58
2021/01/12 07:28:14;;;;;;;118.50;60.20;;;;;;;-0.25;81.08;100474.16;5117167;28;20023;-59
2021/01/12 07:30:47;;;;;;;101.97;51.15;;;;;;;-0.21;81.36;100479.81;5117675;28;20111;-56
2021/01/12 07:33:15;;;;;;;96.72;48.53;;;;;;;-0.22;81.72;100475.44;5116521;28;20415;-59
2021/01/12 07:35:41;;;;;;;97.38;47.92;;;;;;;-0.25;81.13;100476.09;5117334;28;20023;-57
2021/01/12 07:38:06;;;;;;;93.75;46.67;;;;;;;-0.27;81.26;100465.38;5116942;28;20319;-59
2021/01/12 07:40:33;;;;;;;109.82;54.38;;;;;;;-0.28;80.98;100473.97;5117173;28;20054;-57
2021/01/12 07:43:01;;;;;;;132.93;60.63;;;;;;;-0.29;81.20;100477.88;5116568;27;20081;-57
2021/01/12 07:45:30;;;;;;;152.50;66.28;;;;;;;-0.31;81.08;100473.50;5117029;28;20067;-58
2021/01/12 07:47:59;;;;;;;290.70;116.28;;;;;;;-0.33;80.87;100483.25;5116614;28;20053;-58
2021/01/12 07:50:26;;;;;;;297.25;123.85;;;;;;;-0.32;81.65;100484.88;5117036;28;20023;-58
2021/01/12 07:52:52;;;;;;;295.50;122.32;;;;;;;-0.31;81.26;100481.78;5117064;28;20082;-66
2021/01/12 07:55:18;;;;;;;447.80;179.07;;;;;;;-0.30;81.43;100471.53;5116799;28;20050;-58
2021/01/12 07:57:46;;;;;;;288.17;119.25;;;;;;;-0.31;81.02;100487.28;5116829;28;20028;-58
2021/01/12 08:00:14;;;;;;;224.25;107.57;;;;;;;-0.29;81.13;100472.34;5116600;28;21316;-58
2021/01/12 08:02:53;;;;;;;313.63;140.40;;;;;;;-0.29;81.06;100477.88;5116711;28;20023;-59
2021/01/12 08:05:26;;;;;;;348.15;150.45;;;;;;;-0.31;80.93;100473.50;5116732;28;20359;-57
2021/01/12 08:08:04;;;;;;;231.10;108.22;;;;;;;-0.33;80.90;100467.47;5115752;28;20023;-58
2021/01/12 08:10:32;;;;;;;144.43;73.72;;;;;;;-0.32;81.07;100463.59;5116480;28;20019;-51
2021/01/12 08:13:10;;;;;;;120.32;63.38;;;;;;;-0.31;81.44;100467.97;5115458;28;20024;-59
2021/01/12 08:15:36;;;;;;;103.53;52.67;;;;;;;-0.28;80.75;100457.41;5116407;28;20030;-58
2021/01/12 08:18:06;;;;;;;98.28;50.85;;;;;;;-0.28;80.96;100454.63;5116418;28;20079;-59
2021/01/12 08:20:32;;;;;;;101.07;50.72;;;;;;;-0.29;81.11;100456.59;5116320;28;20074;-65
2021/01/12 08:22:57;;;;;;;98.80;50.38;;;;;;;-0.24;80.55;100463.91;5116560;28;20529;-65
2021/01/12 08:25:23;;;;;;;108.15;55.63;;;;;;;-0.23;81.05;100458.06;5116171;28;20023;-58
2021/01/12 08:27:54;;;;;;;110.55;58.17;;;;;;;-0.21;80.40;100452.19;5116093;28;20292;-56
2021/01/12 08:30:21;;;;;;;137.85;66.78;;;;;;;-0.22;80.50;100465.22;5116120;28;20030;-58
2021/01/12 08:33:05;;;;;;;128.82;65.20;;;;;;;-0.21;80.15;100461.31;5116205;28;20100;-59
2021/01/12 08:35:32;;;;;;;149.68;72.63;;;;;;;-0.15;80.33;100464.69;5115989;27;20047;-59
2021/01/12 08:37:58;;;;;;;164.60;79.55;;;;;;;-0.13;80.61;100465.19;5116153;28;20045;-58
2021/01/12 08:40:28;;;;;;;132.95;66.82;;;;;;;-0.10;80.37;100470.03;5116083;28;20421;-58
2021/01/12 08:42:54;;;;;;;129.65;65.35;;;;;;;-0.11;80.19;100471.19;5115785;28;20027;-56
2021/01/12 08:45:19;;;;;;;117.00;62.38;;;;;;;-0.13;80.10;100459.66;5115891;28;20022;-57
2021/01/12 08:47:48;;;;;;;115.18;58.40;;;;;;;-0.14;80.01;100464.38;5116146;28;20300;-58
2021/01/12 08:50:14;;;;;;;121.25;59.90;;;;;;;-0.15;79.97;100462.75;5115642;28;20028;-58
2021/01/12 08:52:45;;;;;;;112.38;60.45;;;;;;;-0.12;80.08;100462.09;5115011;28;20038;-58
2021/01/12 08:55:18;;;;;;;113.75;56.88;;;;;;;-0.07;80.07;100459.13;5115219;28;20019;-63
2021/01/12 08:57:57;;;;;;;105.35;53.85;;;;;;;-0.03;80.28;100459.28;5115941;28;20027;-62
2021/01/12 09:00:41;;;;;;;112.50;54.92;;;;;;;-0.02;80.23;100461.72;5115504;28;20015;-61
2021/01/12 09:03:11;;;;;;;126.10;62.13;;;;;;;0.00;80.40;100453.13;5116190;28;20024;-66
2021/01/12 09:05:40;;;;;;;136.77;64.75;;;;;;;0.01;79.99;100449.22;5115802;28;20016;-58
2021/01/12 09:08:07;;;;;;;110.35;53.72;;;;;;;0.07;80.54;100453.41;5115980;28;20309;-59
2021/01/12 09:10:34;;;;;;;110.55;55.30;;;;;;;0.13;80.03;100452.09;5116056;28;20019;-60
2021/01/12 09:13:00;;;;;;;102.82;51.97;;;;;;;0.15;79.90;100449.00;5115775;28;20316;-59
2021/01/12 09:15:27;;;;;;;102.82;50.55;;;;;;;0.20;80.29;100452.38;5114135;28;20023;-64
2021/01/12 09:18:06;;;;;;;107.20;54.13;;;;;;;0.24;80.06;100445.03;5115830;28;20035;-64
2021/01/12 09:20:33;;;;;;;109.50;55.40;;;;;;;0.27;80.27;100438.88;5115732;28;20318;-55
2021/01/12 09:23:05;;;;;;;106.88;53.55;;;;;;;0.37;79.88;100439.63;5115855;28;20027;-63
2021/01/12 09:25:32;;;;;;;95.63;51.78;;;;;;;0.41;79.97;100443.34;5115464;28;20049;-59
2021/01/12 09:28:15;;;;;;;109.47;54.97;;;;;;;0.47;79.41;100434.50;5115293;28;20419;-58
2021/01/12 09:30:43;;;;;;;115.78;57.92;;;;;;;0.63;79.48;100426.47;5115439;28;20030;-59
2021/01/12 09:33:13;;;;;;;110.63;54.78;;;;;;;0.73;79.08;100433.53;5115628;28;20030;-59
2021/01/12 09:35:39;;;;;;;106.93;56.67;;;;;;;0.89;79.50;100427.09;5115549;28;20044;-59
2021/01/12 09:38:04;;;;;;;111.00;54.65;;;;;;;1.18;79.51;100419.88;5115798;28;20020;-59
2021/01/12 09:40:30;;;;;;;106.45;54.90;;;;;;;1.53;78.91;100415.63;5115481;28;20026;-57
2021/01/12 09:42:57;;;;;;;102.82;53.40;;;;;;;1.89;77.64;100411.31;5115275;28;20078;-58
2021/01/12 09:45:24;;;;;;;118.00;60.33;;;;;;;2.22;76.68;100411.25;5115356;28;20287;-58
2021/01/12 09:47:50;;;;;;;129.95;64.95;;;;;;;2.41;75.37;100399.56;5115551;28;20322;-55
2021/01/12 09:50:15;;;;;;;137.93;69.43;;;;;;;2.63;75.09;100401.84;5115170;28;20019;-53
2021/01/12 09:52:40;;;;;;;134.35;65.93;;;;;;;2.81;74.16;100401.59;5115516;28;20027;-59
2021/01/12 09:55:06;;;;;;;120.22;60.45;;;;;;;2.93;72.58;100405.16;5115426;28;20028;-57
2021/01/12 09:57:35;;;;;;;111.78;58.00;;;;;;;3.10;72.52;100388.22;5114024;28;20023;-58
2021/01/12 10:00:02;;;;;;;109.88;56.53;;;;;;;3.24;72.22;100385.03;5115114;28;20016;-58
2021/01/12 10:02:31;;;;;;;117.47;60.13;;;;;;;3.39;72.02;100387.03;5115353;28;20349;-66
2021/01/12 10:04:56;;;;;;;103.72;54.30;;;;;;;3.52;71.62;100373.88;5116261;28;20138;-58
2021/01/12 10:07:22;;;;;;;97.32;50.25;;;;;;;3.53;69.40;100371.91;5118736;28;20102;-56
2021/01/12 10:09:47;;;;;;;98.72;54.17;;;;;;;3.50;68.59;100365.09;5119108;28;20589;-65
2021/01/12 10:12:12;;;;;;;105.00;52.65;;;;;;;3.49;68.27;100368.25;5118402;28;20122;-58
2021/01/12 10:14:38;;;;;;;101.15;53.28;;;;;;;3.47;68.79;100356.66;5118763;28;20020;-59
2021/01/12 10:17:03;;;;;;;104.82;52.88;;;;;;;3.50;68.76;100353.19;5118611;28;20031;-59
2021/01/12 10:19:28;;;;;;;98.38;52.25;;;;;;;3.55;68.73;100344.56;5118633;28;20084;-60
2021/01/12 10:21:54;;;;;;;102.55;51.95;;;;;;;3.64;69.45;100339.69;5118837;28;20122;-59
2021/01/12 10:24:19;;;;;;;93.75;49.75;;;;;;;3.77;68.24;100332.03;5118365;28;20023;-58
2021/01/12 10:26:46;;;;;;;98.80;49.05;;;;;;;3.74;67.47;100322.44;5118478;28;20042;-58
2021/01/12 10:29:11;;;;;;;94.95;48.90;;;;;;;3.65;67.99;100327.38;5118167;28;20023;-54
2021/01/12 10:31:43;;;;;;;98.22;48.72;;;;;;;3.62;68.08;100323.34;5118483;28;20073;-65
2021/01/12 10:34:08;;;;;;;97.00;48.22;;;;;;;3.63;68.22;100322.19;5118437;28;20051;-56
2021/01/12 10:36:33;;;;;;;99.47;51.22;;;;;;;3.78;68.87;100312.22;5118231;28;20038;-67
2021/01/12 10:38:58;;;;;;;107.15;52.78;;;;;;;3.85;66.41;100318.00;5118422;28;20028;-58
2021/01/12 10:41:24;;;;;;;94.30;48.97;;;;;;;3.90;66.75;100312.16;5117865;28;20051;-64
2021/01/12 10:43:55;;;;;;;81.65;44.58;;;;;;;4.06;67.98;100317.69;5118217;28;20028;-63
2021/01/12 10:46:20;;;;;;;87.57;45.13;;;;;;;4.19;65.77;100310.06;5118071;28;20113;-64
2021/01/12 10:48:46;;;;;;;86.82;46.38;;;;;;;4.28;67.17;100319.81;5118276;28;20059;-65
2021/01/12 10:51:11;;;;;;;89.47;46.78;;;;;;;4.33;66.01;100302.03;5116854;28;20023;-65
2021/01/12 10:53:36;;;;;;;90.47;47.65;;;;;;;4.38;66.52;100307.28;5118101;28;20020;-65
2021/01/12 10:56:02;;;;;;;90.93;47.47;;;;;;;4.48;66.15;100303.97;5117778;28;20023;-65
2021/01/12 10:58:28;;;;;;;86.43;44.67;;;;;;;4.59;66.49;100295.84;5117662;27;20019;-67
2021/01/12 11:00:54;;;;;;;94.57;49.28;;;;;;;4.69;65.92;100292.50;5118062;28;20038;-59
2021/01/12 11:03:19;;;;;;;91.80;47.92;;;;;;;4.73;64.83;100289.78;5117714;28;20016;-59
2021/01/12 11:05:46;;;;;;;93.90;43.60;;;;;;;4.78;64.59;100289.50;5118182;28;20072;-58
2021/01/12 11:08:11;;;;;;;85.72;46.08;;;;;;;4.89;64.70;100276.56;5117670;28;20112;-59
2021/01/12 11:10:37;;;;;;;84.07;44.03;;;;;;;5.12;64.41;100274.66;5117308;28;20401;-59